Decoded Metar for KHBI (ASHEBORO MUNI in NC, USA) (IATA:HBI) | Meteo·Mobile Aviation Weather
aviador You're here:

KHBI Decoded Metar

ASHEBORO MUNI in NC, USA
Report Time2019-11-16 00:35:00
UTC Time2019-11-16 00:55:46
Flight Rules vfr VFR
Wind020° at 08 kt
W.Decomp.*RWY 03: 8.0 kt HW 0.3 kt LCW
Visibility9999 m
Phenomena:N/A
Clouds:Overcast 075 Hf
Expected CloudBase > 3,600 ft AGL from Temp-Dew spread
Ceiling7,500 ft
Temp08°C (ISA -6)
Dew Point-1°C (53% RH)
AAT3.0°C
QNH1021 hPa
Density Alt-197 ft
Elevation673 ft
Report Wrong Elevation
Raw Report
METAR KHBI 160035Z AUTO 02008KT 10SM OVC075 08/M01 A3014 RMK AO2 T00781006=

Extra information for KHBI:More info

Metar Taf Metar & Taf Last 4 Metars F.Rules Stats Wind Profile Meteogram Temp Stats Airport Information Weather charts Add Link Nearby VenuesMetar ALERT Operation Metar Decoded Social comments

AIRNAV info for KHBI